« 難破船 伏木富山港 2024/2/12 mon | トップページ | 定点 富山空港他 2024/2/13 tue »

2024/02/12

定点 富山空港 2024/2/12 mon

難破船から川を遡上して空港です。

RJNT 120200Z 20003KT 110V290 9999 FEW020 SCT050 06/01 Q1027

20240212_1rjnt_06ja87an

この時季に、こんなに晴れるとは・・

20240212_1rjnt_07ja87an

20240212_1rjnt_08ja87an

ANA315 RJTT-RJNT JA87AN B737-8AL

20240212_1rjnt_09hl8008

KAL703 RKSI-RJAA HL8008 B777-3B5ER FL370

20240212_1rjnt_10b7175

CHH7927 ZLXY-RJAA B-7175 B737-86N FL330

ちょっとした高度差ですが、飛行機雲が出来てます。

20240212_1rjnt_11hl8038

9日の帰りチャーター

20240212_1rjnt_12hl8038

20240212_1rjnt_13hl8038

AAR1283 RKSI-RJNT HL8038 A321-231

20240212_1rjnt_14ja173b

JA173B↑ BK117C-2 THK 富山県ドクヘリ

20240212_1rjnt_15ja87an

20240212_1rjnt_16ja87an

20240212_1rjnt_17ja87an

ANA316 RJNT-RJTT JA87AN B737-8AL

20240212_1rjnt_18ja85an

20240212_1rjnt_19ja85an

20240212_1rjnt_20ja85an

ANA1182 RJCC-RJNT JA85AN B737-881

RJNT 120300Z VRB04KT 9999 FEW020 SCT030 07/01 Q1027

20240212_1rjnt_21hl8038

20240212_1rjnt_22ja85an

20240212_1rjnt_23ja85an

20240212_1rjnt_24ja85an

ANA1181 RJNT-RJCC JA85AN B737-881

20240212_1rjnt_25hl8038

20240212_1rjnt_26hl8038

20240212_1rjnt_27hl8038

20240212_1rjnt_28hl8038

AAR1273 RJNT-RKSI HL8038 A321-231

このシーズン、韓国からのチャーターは、これだけです。

どんどんお天気が良くなりますが、静かな河原です。

 

|

« 難破船 伏木富山港 2024/2/12 mon | トップページ | 定点 富山空港他 2024/2/13 tue »

富山空港」カテゴリの記事

コメント

コメントを書く



(ウェブ上には掲載しません)


コメントは記事投稿者が公開するまで表示されません。



« 難破船 伏木富山港 2024/2/12 mon | トップページ | 定点 富山空港他 2024/2/13 tue »